Time;durP1;ratioP1;P1;durP2;ratioP2;P2;SDS_P1;SDS_P2;PMS_P1;PMS_P2;Temp;Humidity;BMP_temperature;BMP_pressure;BME280_temperature;BME280_humidity;BME280_pressure;Samples;Min_cycle;Max_cycle;Signal;HPM_P1;HPM_P2
2021/05/03 00:00:08;;;;;;;9.85;5.80;;;9.80;72.70;;;;;;5036476;28;20499;-69
2021/05/03 00:02:35;;;;;;;7.18;5.32;;;9.80;73.90;;;;;;5052862;28;20449;-71
2021/05/03 00:05:02;;;;;;;8.68;5.70;;;9.70;73.60;;;;;;5036180;28;20028;-69
2021/05/03 00:07:27;;;;;;;8.65;6.07;;;9.70;73.90;;;;;;5036196;28;20028;-69
2021/05/03 00:09:53;;;;;;;9.32;6.05;;;9.70;74.00;;;;;;5035556;28;20323;-70
2021/05/03 00:12:18;;;;;;;8.00;5.95;;;9.60;74.30;;;;;;5036140;28;20028;-69
2021/05/03 00:14:44;;;;;;;9.52;5.53;;;9.70;74.50;;;;;;5053020;28;20068;-69
2021/05/03 00:17:10;;;;;;;9.55;6.30;;;9.70;74.40;;;;;;5036054;28;20123;-69
2021/05/03 00:19:36;;;;;;;10.77;6.38;;;9.70;74.40;;;;;;5035446;28;20365;-70
2021/05/03 00:22:02;;;;;;;9.30;6.30;;;9.70;74.30;;;;;;5036097;28;20021;-69
2021/05/03 00:24:28;;;;;;;9.65;6.47;;;9.70;74.10;;;;;;5035733;28;20032;-69
2021/05/03 00:26:54;;;;;;;12.55;6.22;;;9.70;74.50;;;;;;5035348;28;20592;-69
2021/05/03 00:29:19;;;;;;;10.35;6.68;;;9.70;74.60;;;;;;5053388;28;20052;-69
2021/05/03 00:31:45;;;;;;;9.82;6.30;;;9.70;74.50;;;;;;5035433;28;20025;-69
2021/05/03 00:34:11;;;;;;;10.60;6.78;;;9.60;74.50;;;;;;5035914;28;20029;-69
2021/05/03 00:36:36;;;;;;;10.48;6.28;;;9.60;74.60;;;;;;5035180;28;20466;-70
2021/05/03 00:39:03;;;;;;;9.77;5.93;;;9.50;75.20;;;;;;5053527;28;20123;-69
2021/05/03 00:41:28;;;;;;;13.65;7.15;;;9.40;75.30;;;;;;5052089;28;20021;-69
2021/05/03 00:43:54;;;;;;;10.40;6.60;;;9.30;75.80;;;;;;5052631;28;20040;-69
2021/05/03 00:46:20;;;;;;;10.10;6.90;;;9.30;75.60;;;;;;5053547;28;20025;-69
2021/05/03 00:48:47;;;;;;;9.75;6.60;;;9.30;76.20;;;;;;5052973;28;20025;-69
2021/05/03 00:51:13;;;;;;;8.45;5.63;;;9.30;75.60;;;;;;5053469;28;20028;-69
2021/05/03 00:53:39;;;;;;;9.02;5.93;;;9.30;75.40;;;;;;5052867;28;20099;-69
2021/05/03 00:56:05;;;;;;;10.13;6.15;;;9.30;75.40;;;;;;5052118;28;20239;-69
2021/05/03 00:58:31;;;;;;;9.30;6.43;;;9.30;75.10;;;;;;5051950;28;20474;-69
2021/05/03 01:00:56;;;;;;;9.25;6.45;;;9.20;75.10;;;;;;5051097;28;20373;-69
2021/05/03 01:03:22;;;;;;;10.13;5.88;;;9.30;75.10;;;;;;5051942;28;20450;-69
2021/05/03 01:05:48;;;;;;;10.02;6.07;;;9.30;74.90;;;;;;5051344;28;20024;-69
2021/05/03 01:08:13;;;;;;;9.35;5.90;;;9.20;74.90;;;;;;5051749;28;20040;-69
2021/05/03 01:10:39;;;;;;;10.40;6.40;;;9.20;74.60;;;;;;5052471;28;20358;-70
2021/05/03 01:13:04;;;;;;;9.10;6.07;;;9.20;74.50;;;;;;5051866;28;20079;-69
2021/05/03 01:15:30;;;;;;;10.13;5.72;;;9.20;74.40;;;;;;5052798;28;20035;-69
2021/05/03 01:18:00;;;;;;;12.02;6.20;;;9.20;74.30;;;;;;5052376;28;20469;-69
2021/05/03 01:20:28;;;;;;;9.13;5.88;;;9.20;74.30;;;;;;5053034;28;20067;-69
2021/05/03 01:22:57;;;;;;;8.63;5.68;;;9.20;74.10;;;;;;5051070;28;20453;-69
2021/05/03 01:25:27;;;;;;;8.77;5.38;;;9.10;74.00;;;;;;5051485;28;20028;-69
2021/05/03 01:27:53;;;;;;;8.35;5.35;;;9.10;74.50;;;;;;5052337;28;20024;-69
2021/05/03 01:30:19;;;;;;;10.20;5.95;;;9.10;73.80;;;;;;5051590;28;20025;-69
2021/05/03 01:32:45;;;;;;;8.27;5.43;;;9.10;73.60;;;;;;5050900;28;20028;-69
2021/05/03 01:35:14;;;;;;;11.73;5.88;;;9.00;73.60;;;;;;5051675;28;20055;-69
2021/05/03 01:37:40;;;;;;;9.02;5.63;;;9.00;73.60;;;;;;5050972;28;20013;-70
2021/05/03 01:40:07;;;;;;;8.35;5.38;;;9.10;73.00;;;;;;5052953;28;20489;-69
2021/05/03 01:42:35;;;;;;;9.50;5.28;;;9.10;72.80;;;;;;5052702;28;20016;-69
2021/05/03 01:45:02;;;;;;;8.70;5.47;;;9.10;72.70;;;;;;5050725;28;20082;-69
2021/05/03 01:47:28;;;;;;;8.52;5.70;;;9.00;72.70;;;;;;5051438;28;20373;-69
2021/05/03 01:49:55;;;;;;;10.90;5.55;;;9.10;72.40;;;;;;5050781;28;20062;-69
2021/05/03 01:52:21;;;;;;;9.25;5.63;;;9.00;72.50;;;;;;5051248;28;20047;-69
2021/05/03 01:54:47;;;;;;;8.68;5.70;;;9.00;72.40;;;;;;5050643;28;20029;-69
2021/05/03 01:57:17;;;;;;;8.60;5.07;;;9.00;72.50;;;;;;5052620;28;20025;-69
2021/05/03 01:59:43;;;;;;;9.88;5.45;;;8.80;72.10;;;;;;5051925;28;20028;-69
2021/05/03 02:02:09;;;;;;;7.72;5.30;;;8.90;72.70;;;;;;5052437;28;20024;-69
2021/05/03 02:04:34;;;;;;;7.70;5.05;;;8.90;72.70;;;;;;5052371;28;20032;-69
2021/05/03 02:07:00;;;;;;;6.82;5.07;;;8.90;72.90;;;;;;5051799;28;20623;-69
2021/05/03 02:09:25;;;;;;;8.32;5.60;;;8.80;72.80;;;;;;5050960;28;20025;-69
2021/05/03 02:11:51;;;;;;;9.27;5.47;;;8.90;72.80;;;;;;5052254;28;20021;-69
2021/05/03 02:14:17;;;;;;;8.50;5.38;;;8.90;73.10;;;;;;5055432;28;20365;-69
2021/05/03 02:16:43;;;;;;;8.80;4.93;;;8.90;73.10;;;;;;5054502;28;20029;-70
2021/05/03 02:19:09;;;;;;;7.65;5.25;;;8.80;72.90;;;;;;5055168;28;20028;-69
2021/05/03 02:21:34;;;;;;;7.88;5.25;;;8.90;73.10;;;;;;5056342;28;20369;-69
2021/05/03 02:24:00;;;;;;;9.57;5.03;;;8.90;73.00;;;;;;5055516;28;20190;-69
2021/05/03 02:26:25;;;;;;;7.85;5.28;;;8.90;73.20;;;;;;5056132;28;20029;-69
2021/05/03 02:28:51;;;;;;;8.20;5.85;;;8.90;73.60;;;;;;5054367;28;20021;-69
2021/05/03 02:31:18;;;;;;;8.73;5.75;;;8.80;74.20;;;;;;5054884;28;20078;-69
2021/05/03 02:33:43;;;;;;;9.88;5.65;;;8.70;74.30;;;;;;5055528;28;20060;-69
2021/05/03 02:36:09;;;;;;;8.88;5.88;;;8.70;74.50;;;;;;5054691;28;20052;-69
2021/05/03 02:38:35;;;;;;;10.25;5.93;;;8.60;74.70;;;;;;5055730;28;20103;-69
2021/05/03 02:41:01;;;;;;;8.82;5.63;;;8.60;75.00;;;;;;5055403;28;20461;-69
2021/05/03 02:43:26;;;;;;;10.13;5.55;;;8.50;75.10;;;;;;5055559;28;20024;-69
2021/05/03 02:45:52;;;;;;;8.10;5.47;;;8.50;75.00;;;;;;5053897;28;20373;-69
2021/05/03 02:48:18;;;;;;;7.80;5.50;;;8.50;74.90;;;;;;5054580;28;20052;-69
2021/05/03 02:50:43;;;;;;;8.60;5.57;;;8.50;74.90;;;;;;5053907;28;20119;-72
2021/05/03 02:53:09;;;;;;;10.23;6.10;;;8.40;75.10;;;;;;5054790;28;20450;-69
2021/05/03 02:55:35;;;;;;;7.25;4.95;;;8.30;75.20;;;;;;5054504;28;20032;-69
2021/05/03 02:58:00;;;;;;;8.07;5.20;;;8.30;75.50;;;;;;5053755;28;20025;-69
2021/05/03 03:00:35;;;;;;;9.77;5.28;;;8.30;75.40;;;;;;5055637;28;20070;-69
2021/05/03 03:03:02;;;;;;;8.65;5.50;;;8.20;75.40;;;;;;5054962;28;20025;-69
2021/05/03 03:05:28;;;;;;;10.75;5.50;;;8.20;75.30;;;;;;5054277;28;20029;-69
2021/05/03 03:07:54;;;;;;;9.73;6.00;;;8.20;75.30;;;;;;5054759;28;20021;-69
2021/05/03 03:10:21;;;;;;;10.60;5.35;;;8.20;75.10;;;;;;5053795;28;20025;-69
2021/05/03 03:12:48;;;;;;;8.25;5.10;;;8.20;75.00;;;;;;5055087;28;20146;-69
2021/05/03 03:15:18;;;;;;;8.00;5.07;;;8.20;74.80;;;;;;5055316;28;20052;-69
2021/05/03 03:17:48;;;;;;;7.82;5.13;;;8.20;74.60;;;;;;5055270;28;20025;-69
2021/05/03 03:20:16;;;;;;;10.23;5.43;;;8.20;74.50;;;;;;5055359;28;20025;-70
2021/05/03 03:22:42;;;;;;;7.53;4.70;;;8.20;74.40;;;;;;5054824;28;20025;-69
2021/05/03 03:25:08;;;;;;;8.67;4.40;;;8.20;74.00;;;;;;5054527;28;20047;-69
2021/05/03 03:27:33;;;;;;;7.97;4.77;;;8.20;73.70;;;;;;5053783;28;20029;-69
2021/05/03 03:29:59;;;;;;;10.43;5.75;;;8.20;73.70;;;;;;5053283;28;20021;-69
2021/05/03 03:32:25;;;;;;;7.57;4.88;;;8.20;73.20;;;;;;5054687;28;20031;-69
2021/05/03 03:34:51;;;;;;;9.38;5.50;;;8.20;73.00;;;;;;5053134;28;20036;-69
2021/05/03 03:37:16;;;;;;;7.43;5.10;;;8.20;73.00;;;;;;5055223;28;20545;-69
2021/05/03 03:39:42;;;;;;;8.13;5.43;;;8.30;73.10;;;;;;5053354;28;20052;-69
2021/05/03 03:42:09;;;;;;;7.38;4.93;;;8.30;73.00;;;;;;5053016;28;20021;-69
2021/05/03 03:44:34;;;;;;;9.48;5.40;;;8.20;73.00;;;;;;5053466;28;20029;-69
2021/05/03 03:47:00;;;;;;;9.80;4.78;;;8.20;73.30;;;;;;5052906;28;20567;-69
2021/05/03 03:49:26;;;;;;;7.78;5.05;;;8.20;73.60;;;;;;5053436;28;20028;-69
2021/05/03 03:51:51;;;;;;;8.70;5.10;;;8.20;73.40;;;;;;5054066;28;20458;-69
2021/05/03 03:54:17;;;;;;;7.93;4.80;;;8.20;73.20;;;;;;5054375;28;20025;-69
2021/05/03 03:56:44;;;;;;;9.07;5.57;;;8.20;73.30;;;;;;5053318;28;20438;-69
2021/05/03 03:59:11;;;;;;;8.75;5.13;;;8.30;72.90;;;;;;5052666;28;20040;-69
2021/05/03 04:01:37;;;;;;;7.75;4.65;;;8.30;72.50;;;;;;5054513;28;20020;-69
2021/05/03 04:04:12;;;;;;;8.13;5.15;;;8.30;72.50;;;;;;5053753;28;20028;-69
2021/05/03 04:07:02;;;;;;;7.20;4.80;;;8.30;72.30;;;;;;5054200;28;20036;-69
2021/05/03 04:09:37;;;;;;;10.15;5.65;;;8.30;72.10;;;;;;5053833;28;20028;-71
2021/05/03 04:25:43;;;;;;;8.85;4.95;;;8.30;72.10;;;;;;5053809;28;20035;-69
2021/05/03 04:28:09;;;;;;;8.95;4.82;;;8.30;71.70;;;;;;5052077;28;20037;-69
2021/05/03 04:30:36;;;;;;;10.85;4.60;;;8.40;71.30;;;;;;5052698;28;20416;-69
2021/05/03 04:33:02;;;;;;;9.40;5.63;;;8.40;71.10;;;;;;5051921;28;20071;-69
2021/05/03 04:35:28;;;;;;;7.68;4.88;;;8.40;70.90;;;;;;5052783;28;20025;-69
2021/05/03 04:37:54;;;;;;;7.70;4.78;;;8.40;70.90;;;;;;5051739;28;20090;-69
2021/05/03 04:40:20;;;;;;;8.02;5.05;;;8.30;71.30;;;;;;5052523;28;20124;-69
2021/05/03 04:42:46;;;;;;;9.32;4.72;;;8.20;71.40;;;;;;5053664;28;20021;-69
2021/05/03 04:45:13;;;;;;;9.10;4.95;;;8.30;71.10;;;;;;5052963;28;20036;-69
2021/05/03 04:47:39;;;;;;;8.35;5.00;;;8.30;70.90;;;;;;5052408;28;20123;-68
2021/05/03 04:50:07;;;;;;;11.70;6.57;;;8.30;71.10;;;;;;5052935;28;20021;-68
2021/05/03 04:52:34;;;;;;;11.23;4.80;;;8.20;71.50;;;;;;5052194;28;20032;-68
2021/05/03 04:54:59;;;;;;;7.47;4.43;;;8.20;71.80;;;;;;5052842;28;20438;-68
2021/05/03 04:57:25;;;;;;;8.93;5.20;;;8.20;71.70;;;;;;5052043;28;20115;-68
2021/05/03 04:59:51;;;;;;;8.80;4.85;;;8.10;71.80;;;;;;5051660;28;20056;-73
2021/05/03 05:02:16;;;;;;;13.00;5.38;;;8.20;71.70;;;;;;5053241;28;20035;-68
2021/05/03 05:04:42;;;;;;;9.63;5.30;;;8.20;71.80;;;;;;5051873;28;20025;-68
2021/05/03 05:07:08;;;;;;;12.45;5.63;;;8.10;72.00;;;;;;5052471;28;20039;-68
2021/05/03 05:09:33;;;;;;;10.02;5.18;;;8.10;72.10;;;;;;5053249;28;20442;-68
2021/05/03 05:11:59;;;;;;;13.30;5.72;;;8.10;72.00;;;;;;5051100;28;20024;-68
2021/05/03 05:14:25;;;;;;;13.23;5.90;;;8.20;72.00;;;;;;5051723;28;20029;-68
2021/05/03 05:16:50;;;;;;;11.35;5.68;;;8.10;72.10;;;;;;5051643;28;20111;-68
2021/05/03 05:19:17;;;;;;;9.98;5.13;;;8.20;72.20;;;;;;5051100;28;20017;-70
2021/05/03 05:21:42;;;;;;;9.68;5.50;;;8.10;72.20;;;;;;5053108;28;20021;-69
2021/05/03 05:24:09;;;;;;;10.70;5.35;;;8.10;72.20;;;;;;5052144;28;20108;-69
2021/05/03 05:26:34;;;;;;;7.22;4.47;;;8.10;72.50;;;;;;5052538;28;20446;-69
2021/05/03 05:29:00;;;;;;;9.07;4.97;;;8.10;72.90;;;;;;5052226;28;20025;-69
2021/05/03 05:31:26;;;;;;;8.50;4.80;;;8.10;72.80;;;;;;5051256;28;20028;-69
2021/05/03 05:33:51;;;;;;;11.90;5.57;;;8.00;72.90;;;;;;5051528;28;20074;-69
2021/05/03 05:36:17;;;;;;;9.23;5.28;;;8.00;73.00;;;;;;5051815;28;20485;-69
2021/05/03 05:38:43;;;;;;;10.68;5.35;;;8.10;72.90;;;;;;5052433;28;20052;-69
2021/05/03 05:41:13;;;;;;;8.82;5.25;;;8.10;72.90;;;;;;5050774;28;20407;-69
2021/05/03 05:43:39;;;;;;;7.50;4.47;;;8.10;73.20;;;;;;5051408;28;20025;-69
2021/05/03 05:46:04;;;;;;;7.57;5.15;;;8.20;73.40;;;;;;5050609;28;20025;-69
2021/05/03 05:48:30;;;;;;;7.70;5.10;;;8.20;73.40;;;;;;5052215;28;20035;-69
2021/05/03 05:50:56;;;;;;;8.15;4.68;;;8.30;73.30;;;;;;5051891;28;20028;-69
2021/05/03 05:53:21;;;;;;;8.65;4.65;;;8.30;73.10;;;;;;5052751;28;20060;-69
2021/05/03 05:55:47;;;;;;;8.93;4.82;;;8.30;73.50;;;;;;5051211;28;20025;-69
2021/05/03 05:58:13;;;;;;;7.63;5.13;;;8.30;73.20;;;;;;5050561;28;20021;-69
2021/05/03 06:00:38;;;;;;;8.52;4.93;;;8.30;73.00;;;;;;5051031;28;20025;-69
2021/05/03 06:03:04;;;;;;;7.20;4.95;;;8.30;73.00;;;;;;5050546;28;20067;-69
2021/05/03 06:05:30;;;;;;;7.70;4.60;;;8.30;72.70;;;;;;5051998;28;20466;-69
2021/05/03 06:07:56;;;;;;;8.00;5.05;;;8.40;72.20;;;;;;5051708;28;20025;-69
2021/05/03 06:10:21;;;;;;;8.18;5.22;;;8.40;72.40;;;;;;5051227;28;20108;-69
2021/05/03 06:12:47;;;;;;;7.57;4.82;;;8.40;72.40;;;;;;5051010;28;20366;-69
2021/05/03 06:15:13;;;;;;;9.77;5.10;;;8.40;72.00;;;;;;5050417;28;20161;-69
2021/05/03 06:17:38;;;;;;;9.35;5.30;;;8.50;71.80;;;;;;5052244;28;20120;-69
2021/05/03 06:20:05;;;;;;;9.85;5.05;;;8.50;71.70;;;;;;5051660;28;20024;-69
2021/05/03 06:22:32;;;;;;;7.75;5.00;;;8.60;71.90;;;;;;5050956;28;20074;-69
2021/05/03 06:24:59;;;;;;;8.88;5.72;;;8.60;71.60;;;;;;5051193;28;20029;-69
2021/05/03 06:27:26;;;;;;;10.60;5.95;;;8.70;71.00;;;;;;5050531;28;20025;-69
2021/05/03 06:29:51;;;;;;;10.50;5.95;;;8.50;71.40;;;;;;5050817;28;20021;-69
2021/05/03 06:32:17;;;;;;;11.00;5.90;;;8.60;71.20;;;;;;5050256;28;20023;-69
2021/05/03 06:34:43;;;;;;;11.55;5.82;;;8.50;71.20;;;;;;5050525;28;20083;-69
2021/05/03 06:37:08;;;;;;;9.95;5.75;;;8.60;70.80;;;;;;5051506;28;20104;-69
2021/05/03 06:39:34;;;;;;;9.75;5.72;;;8.60;70.80;;;;;;5050164;28;20055;-69
2021/05/03 06:42:00;;;;;;;9.40;5.68;;;8.60;70.40;;;;;;5050166;28;20035;-69
2021/05/03 06:44:26;;;;;;;11.00;6.15;;;8.70;70.40;;;;;;5051946;28;20029;-69
2021/05/03 06:46:52;;;;;;;10.15;6.40;;;8.70;69.80;;;;;;5051973;28;20108;-68
2021/05/03 06:49:17;;;;;;;9.90;6.07;;;8.70;70.10;;;;;;5050022;28;20265;-70
2021/05/03 06:51:44;;;;;;;10.38;5.97;;;8.70;70.10;;;;;;5051918;28;20101;-70
2021/05/03 06:54:10;;;;;;;10.35;6.20;;;8.70;70.70;;;;;;5050128;28;20021;-70
2021/05/03 06:56:36;;;;;;;10.52;5.95;;;8.70;70.40;;;;;;5051935;28;20067;-70
2021/05/03 06:59:02;;;;;;;9.70;5.78;;;8.70;70.40;;;;;;5053377;28;20032;-70
2021/05/03 07:01:28;;;;;;;10.68;5.30;;;8.80;70.90;;;;;;5055593;28;20454;-70
2021/05/03 07:03:53;;;;;;;11.45;5.88;;;8.90;69.80;;;;;;5054062;28;20115;-70
2021/05/03 07:06:19;;;;;;;11.27;5.80;;;8.90;69.10;;;;;;5054856;28;20021;-70
2021/05/03 07:08:45;;;;;;;8.82;5.10;;;9.00;69.40;;;;;;5055683;28;20033;-70
2021/05/03 07:11:20;;;;;;;9.32;5.40;;;9.00;69.70;;;;;;5053507;28;20032;-70
2021/05/03 07:13:46;;;;;;;7.72;5.32;;;9.00;69.80;;;;;;5055375;28;20021;-70
2021/05/03 07:16:12;;;;;;;10.55;5.72;;;9.10;70.00;;;;;;5053397;28;20021;-70
2021/05/03 07:18:39;;;;;;;8.55;5.05;;;9.10;70.20;;;;;;5053933;28;20017;-70
2021/05/03 07:21:05;;;;;;;8.65;5.28;;;9.20;70.70;;;;;;5054604;28;20021;-71
2021/05/03 07:23:31;;;;;;;8.05;5.15;;;9.20;70.50;;;;;;5053794;28;20036;-70
2021/05/03 07:25:58;;;;;;;11.02;5.90;;;9.20;70.80;;;;;;5053805;28;20029;-71
2021/05/03 07:28:24;;;;;;;10.27;5.47;;;9.30;70.60;;;;;;5054481;28;20017;-71
2021/05/03 07:30:56;;;;;;;10.02;5.30;;;9.40;69.30;;;;;;5053360;28;20021;-70
2021/05/03 07:33:23;;;;;;;8.77;4.80;;;9.40;68.80;;;;;;5053127;28;20052;-71
2021/05/03 07:35:48;;;;;;;8.43;5.13;;;9.50;68.80;;;;;;5053639;28;20027;-71
2021/05/03 07:38:14;;;;;;;8.73;5.03;;;9.50;68.40;;;;;;5052587;28;20403;-71
2021/05/03 07:40:40;;;;;;;6.25;4.63;;;9.60;68.10;;;;;;5053718;28;20025;-70
2021/05/03 07:43:05;;;;;;;8.45;5.00;;;9.60;68.30;;;;;;5052893;28;20422;-71
2021/05/03 07:45:31;;;;;;;8.18;5.00;;;9.60;67.50;;;;;;5054680;28;20373;-70
2021/05/03 07:47:57;;;;;;;8.13;5.20;;;9.70;67.80;;;;;;5053417;28;20470;-71
2021/05/03 07:50:23;;;;;;;8.30;5.00;;;9.70;67.30;;;;;;5052729;28;20032;-70
2021/05/03 07:52:48;;;;;;;8.40;5.10;;;9.80;66.60;;;;;;5052996;28;20020;-70
2021/05/03 07:55:16;;;;;;;6.38;4.60;;;9.80;67.60;;;;;;5052622;28;20025;-70
2021/05/03 07:57:41;;;;;;;10.25;5.28;;;9.90;66.50;;;;;;5053370;28;20100;-70
2021/05/03 08:00:08;;;;;;;9.95;5.03;;;9.90;64.80;;;;;;5053854;28;20445;-71
2021/05/03 08:02:33;;;;;;;8.07;5.07;;;10.00;65.30;;;;;;5054442;28;20029;-70
2021/05/03 08:04:59;;;;;;;10.65;5.43;;;10.00;64.70;;;;;;5054011;28;20048;-71
2021/05/03 08:07:25;;;;;;;8.93;5.03;;;10.00;64.30;;;;;;5049598;28;20583;-71
2021/05/03 08:09:50;;;;;;;8.82;4.70;;;10.00;64.00;;;;;;5042885;28;20410;-71
2021/05/03 08:12:16;;;;;;;7.78;5.10;;;10.10;63.50;;;;;;5043746;28;20028;-71
2021/05/03 08:14:43;;;;;;;9.20;4.85;;;10.10;63.40;;;;;;5050069;28;20464;-69
2021/05/03 08:17:12;;;;;;;8.23;4.82;;;10.10;64.50;;;;;;5045358;28;20013;-69
2021/05/03 08:19:37;;;;;;;8.00;4.50;;;10.20;64.20;;;;;;5047323;28;20027;-69
2021/05/03 08:22:04;;;;;;;7.22;4.53;;;10.20;63.60;;;;;;5044033;28;20017;-69
2021/05/03 08:24:32;;;;;;;7.20;4.50;;;10.20;61.90;;;;;;5050980;28;20025;-68
2021/05/03 08:26:59;;;;;;;7.82;4.50;;;10.30;62.20;;;;;;5053982;28;20446;-69
2021/05/03 08:29:25;;;;;;;8.82;4.88;;;10.40;61.60;;;;;;5053014;28;20013;-69
2021/05/03 08:31:51;;;;;;;7.65;4.65;;;10.40;60.80;;;;;;5052454;28;20032;-68
2021/05/03 08:34:17;;;;;;;7.78;4.00;;;10.50;60.50;;;;;;5051361;28;20031;-69
2021/05/03 08:36:42;;;;;;;5.65;3.83;;;10.50;60.60;;;;;;5052656;28;20028;-69
2021/05/03 08:39:08;;;;;;;8.80;3.85;;;10.50;62.20;;;;;;5051493;28;20044;-71
2021/05/03 08:41:34;;;;;;;8.73;3.80;;;10.60;58.00;;;;;;5052338;28;20398;-71
2021/05/03 08:44:01;;;;;;;6.03;4.05;;;10.60;57.10;;;;;;5052134;28;20361;-71
2021/05/03 08:46:28;;;;;;;6.70;4.00;;;10.50;57.70;;;;;;5052914;28;20029;-71
2021/05/03 08:54:13;;;;;;;5.80;3.40;;;10.70;53.70;;;;;;5052944;28;20040;-71
2021/05/03 08:56:39;;;;;;;5.93;3.75;;;10.70;55.30;;;;;;5051932;28;20104;-70
2021/05/03 08:59:05;;;;;;;7.35;3.63;;;10.80;54.40;;;;;;5051335;28;20111;-71
2021/05/03 09:01:30;;;;;;;7.13;3.20;;;10.80;55.10;;;;;;5052887;28;20462;-70
2021/05/03 09:03:58;;;;;;;6.85;3.80;;;10.80;54.40;;;;;;5051479;28;20051;-69
2021/05/03 09:06:23;;;;;;;7.25;3.55;;;10.90;55.20;;;;;;5052665;28;20045;-70
2021/05/03 09:09:08;;;;;;;6.25;4.10;;;11.00;55.00;;;;;;5051770;28;20114;-70
2021/05/03 09:11:35;;;;;;;6.28;3.70;;;11.00;53.70;;;;;;5051922;28;20480;-70
2021/05/03 09:14:12;;;;;;;5.85;3.70;;;11.10;52.80;;;;;;5052731;28;20396;-70
2021/05/03 09:16:45;;;;;;;5.95;3.60;;;11.10;52.20;;;;;;5053121;28;20339;-69
2021/05/03 09:19:13;;;;;;;5.53;3.58;;;11.10;52.80;;;;;;5052141;28;20512;-70
2021/05/03 09:21:39;;;;;;;5.45;3.55;;;11.20;52.90;;;;;;5052813;28;20021;-70
2021/05/03 09:24:14;;;;;;;5.32;3.22;;;11.20;51.70;;;;;;5051325;28;20033;-75
2021/05/03 09:27:08;;;;;;;6.93;3.50;;;11.20;51.30;;;;;;5051571;28;20027;-70
2021/05/03 09:29:36;;;;;;;8.25;3.45;;;11.30;51.40;;;;;;5052806;28;20025;-68
2021/05/03 09:32:12;;;;;;;5.28;3.58;;;11.40;50.00;;;;;;5052816;28;20029;-68
2021/05/03 09:34:41;;;;;;;5.18;3.08;;;11.30;49.80;;;;;;5052833;28;20083;-69
2021/05/03 09:37:28;;;;;;;5.13;3.40;;;11.30;50.00;;;;;;5052096;28;20104;-71
2021/05/03 09:39:58;;;;;;;6.18;3.97;;;11.40;50.70;;;;;;5051053;28;20052;-70
2021/05/03 09:42:40;;;;;;;5.57;3.83;;;11.50;51.70;;;;;;5050633;28;20037;-70
2021/05/03 09:45:07;;;;;;;6.70;3.67;;;11.60;51.20;;;;;;5052592;28;20098;-68
2021/05/03 09:47:35;;;;;;;4.97;3.67;;;11.60;51.90;;;;;;5052625;28;20029;-69
2021/05/03 09:50:06;;;;;;;7.55;3.83;;;11.70;51.20;;;;;;5051466;28;20075;-68
2021/05/03 09:52:32;;;;;;;8.23;3.88;;;11.80;51.30;;;;;;5050828;28;20035;-68
2021/05/03 09:54:58;;;;;;;5.55;3.70;;;11.90;49.30;;;;;;5052618;28;20104;-69
2021/05/03 09:57:23;;;;;;;6.88;4.05;;;12.00;49.70;;;;;;5051176;28;20466;-68
2021/05/03 09:59:52;;;;;;;7.30;4.47;;;12.20;48.70;;;;;;5051356;28;20029;-68
2021/05/03 10:02:30;;;;;;;5.68;3.83;;;12.50;48.20;;;;;;5050720;28;20043;-70
2021/05/03 10:05:15;;;;;;;6.38;3.90;;;12.60;49.30;;;;;;5051176;28;20039;-68
2021/05/03 10:07:50;;;;;;;6.18;4.07;;;12.60;47.80;;;;;;5052473;28;20029;-68
2021/05/03 10:10:18;;;;;;;7.03;3.80;;;12.80;49.10;;;;;;5050625;28;20063;-68
2021/05/03 10:12:45;;;;;;;6.63;3.88;;;12.90;47.30;;;;;;5051315;28;20025;-68
2021/05/03 10:15:15;;;;;;;5.70;3.33;;;12.90;46.10;;;;;;5050572;28;20060;-69
2021/05/03 10:17:43;;;;;;;5.30;3.72;;;12.80;46.10;;;;;;5052741;28;20083;-68
2021/05/03 10:20:10;;;;;;;5.65;3.58;;;12.90;46.50;;;;;;5051855;28;20017;-72
2021/05/03 10:22:36;;;;;;;5.70;3.55;;;13.00;48.10;;;;;;5050991;28;20381;-69
2021/05/03 10:25:05;;;;;;;5.57;3.45;;;13.10;46.60;;;;;;5050752;28;20033;-68
2021/05/03 10:27:37;;;;;;;6.35;3.33;;;13.20;47.60;;;;;;5050380;28;20111;-68
2021/05/03 10:30:23;;;;;;;5.55;3.13;;;13.40;47.90;;;;;;5052095;28;20028;-68
2021/05/03 10:33:09;;;;;;;5.68;3.30;;;13.50;45.90;;;;;;5052506;28;20082;-68
2021/05/03 10:35:46;;;;;;;6.13;3.72;;;13.40;46.00;;;;;;5049966;28;20025;-69
2021/05/03 10:38:27;;;;;;;4.35;3.15;;;13.30;47.10;;;;;;5052665;28;20040;-72
2021/05/03 10:40:53;;;;;;;7.22;3.90;;;13.10;45.60;;;;;;5055903;28;20029;-68
2021/05/03 10:43:20;;;;;;;4.47;3.35;;;13.00;47.00;;;;;;5053350;28;20025;-68
2021/05/03 10:48:35;;;;;;;4.63;3.35;;;13.10;45.80;;;;;;5054623;28;20033;-68
2021/05/03 10:51:03;;;;;;;4.03;3.08;;;13.20;47.40;;;;;;5054084;28;20079;-68
2021/05/03 10:53:40;;;;;;;4.55;3.08;;;13.00;47.30;;;;;;5053270;28;20462;-68
2021/05/03 10:56:11;;;;;;;5.53;3.47;;;13.00;48.60;;;;;;5054218;28;20036;-68
2021/05/03 10:58:55;;;;;;;5.72;3.35;;;13.10;48.40;;;;;;5053815;28;20029;-68
2021/05/03 11:01:21;;;;;;;5.43;3.22;;;13.10;46.60;;;;;;5053719;28;20043;-68
2021/05/03 11:03:59;;;;;;;5.80;3.95;;;13.30;49.20;;;;;;5054991;28;20025;-68
2021/05/03 11:06:36;;;;;;;5.88;3.33;;;13.40;45.90;;;;;;5052631;28;20075;-70
2021/05/03 11:09:28;;;;;;;4.75;3.50;;;13.50;45.30;;;;;;5055283;28;20037;-68
2021/05/03 11:11:55;;;;;;;6.15;3.80;;;13.50;46.10;;;;;;5055118;28;20470;-68
2021/05/03 11:14:22;;;;;;;5.50;3.45;;;13.50;45.90;;;;;;5050569;28;20021;-69
2021/05/03 11:16:53;;;;;;;6.07;3.58;;;13.50;45.50;;;;;;5050984;28;20052;-68
2021/05/03 11:19:31;;;;;;;6.50;3.90;;;13.50;46.20;;;;;;5051040;28;20021;-71
2021/05/03 11:21:59;;;;;;;5.13;3.22;;;13.50;45.20;;;;;;5053471;28;20025;-68
2021/05/03 11:29:53;;;;;;;4.68;3.20;;;13.30;46.20;;;;;;5054440;28;20024;-68
2021/05/03 11:32:26;;;;;;;3.85;3.03;;;13.30;45.90;;;;;;5053647;28;20025;-68
2021/05/03 11:35:12;;;;;;;4.43;3.00;;;13.50;45.70;;;;;;5054920;28;20489;-68
2021/05/03 11:37:42;;;;;;;9.32;3.42;;;13.70;45.30;;;;;;5054806;28;20017;-68
2021/05/03 11:43:35;;;;;;;5.22;3.03;;;14.10;44.80;;;;;;5054239;28;20017;-68
2021/05/03 11:45:51;;;;;;;3.38;2.92;;;14.20;44.30;;;;;;5053856;28;20045;-68
2021/05/03 11:48:28;;;;;;;5.45;3.15;;;14.20;44.10;;;;;;5053345;28;20500;-73
2021/05/03 11:51:08;;;;;;;4.18;2.75;;;14.20;44.90;;;;;;5054348;28;20017;-69
2021/05/03 11:53:40;;;;;;;5.30;3.15;;;14.10;44.40;;;;;;5052254;28;20521;-69
2021/05/03 11:56:26;;;;;;;5.25;3.47;;;14.10;44.50;;;;;;5053276;28;20032;-69
2021/05/03 11:58:54;;;;;;;3.67;2.78;;;14.00;43.40;;;;;;5053047;28;20124;-70
2021/05/03 12:01:26;;;;;;;4.72;2.92;;;13.90;44.00;;;;;;5053724;28;20027;-70
2021/05/03 12:03:58;;;;;;;3.75;2.65;;;14.10;44.60;;;;;;5054380;28;20059;-69
2021/05/03 12:06:37;;;;;;;4.50;2.40;;;14.10;43.80;;;;;;5052431;28;20099;-69
2021/05/03 12:09:08;;;;;;;3.63;2.42;;;14.10;42.60;;;;;;5052375;28;20033;-70
2021/05/03 12:11:38;;;;;;;3.30;2.47;;;14.30;42.50;;;;;;5053578;28;20017;-69
2021/05/03 12:14:05;;;;;;;2.58;2.22;;;14.30;43.40;;;;;;5054267;28;20112;-69
2021/05/03 12:16:39;;;;;;;4.22;3.05;;;14.30;42.70;;;;;;5052090;28;20090;-69
2021/05/03 12:19:16;;;;;;;2.85;2.42;;;14.20;43.00;;;;;;5053036;28;20032;-69
2021/05/03 12:21:43;;;;;;;4.25;2.22;;;14.10;42.70;;;;;;5053777;28;20032;-69
2021/05/03 12:24:12;;;;;;;4.78;2.58;;;14.20;43.40;;;;;;5052694;28;20029;-69
2021/05/03 12:26:53;;;;;;;3.95;2.47;;;14.40;42.50;;;;;;5053392;28;20420;-69
2021/05/03 12:29:19;;;;;;;3.85;2.58;;;14.60;42.30;;;;;;5053302;28;20024;-69
2021/05/03 12:31:45;;;;;;;3.15;2.40;;;14.80;40.70;;;;;;5052414;28;20032;-69
2021/05/03 12:34:16;;;;;;;6.13;2.60;;;15.00;40.90;;;;;;5053797;28;20029;-69
2021/05/03 12:37:02;;;;;;;4.80;2.55;;;15.30;40.90;;;;;;5051634;28;20123;-69
2021/05/03 12:39:27;;;;;;;4.47;2.92;;;15.40;40.50;;;;;;5051373;28;20045;-70
2021/05/03 12:41:53;;;;;;;3.25;2.40;;;15.40;40.50;;;;;;5053376;28;20024;-70
2021/05/03 12:44:22;;;;;;;5.22;2.70;;;15.80;40.70;;;;;;5052502;28;20033;-69
2021/05/03 12:46:48;;;;;;;3.83;2.50;;;16.20;40.60;;;;;;5053609;28;20021;-69
2021/05/03 12:49:24;;;;;;;5.75;2.53;;;16.60;39.40;;;;;;5052410;28;20032;-70
2021/05/03 12:52:06;;;;;;;4.13;2.10;;;16.80;39.90;;;;;;5053380;28;20021;-69
2021/05/03 12:54:51;;;;;;;4.45;2.53;;;16.90;39.30;;;;;;5052324;28;20029;-69
2021/05/03 12:57:28;;;;;;;3.70;2.70;;;17.00;38.00;;;;;;5052020;28;20111;-70
2021/05/03 13:00:05;;;;;;;3.60;2.50;;;17.00;38.80;;;;;;5053050;28;20454;-69
2021/05/03 13:02:38;;;;;;;3.08;2.45;;;16.90;38.50;;;;;;5050966;28;20458;-70
2021/05/03 13:05:38;;;;;;;2.83;2.00;;;16.60;38.70;;;;;;5053039;28;20021;-69
2021/05/03 13:28:09;;;;;;;2.70;1.77;;;16.60;36.40;;;;;;5014617;28;20037;-70
2021/05/03 13:30:39;;;;;;;4.80;1.90;;;16.40;37.70;;;;;;5050993;28;20017;-70
2021/05/03 13:33:05;;;;;;;3.90;2.08;;;16.40;37.80;;;;;;5052734;28;20029;-70
2021/05/03 13:35:34;;;;;;;2.70;1.98;;;16.40;37.40;;;;;;5050228;28;20024;-69
2021/05/03 13:37:59;;;;;;;4.00;1.90;;;16.10;37.20;;;;;;5052624;28;20017;-69
2021/05/03 13:40:25;;;;;;;4.32;2.00;;;16.70;37.60;;;;;;5050554;28;20494;-69
2021/05/03 13:42:54;;;;;;;3.15;2.15;;;17.40;38.10;;;;;;5052658;28;20214;-70
2021/05/03 13:45:23;;;;;;;3.80;2.30;;;17.90;36.50;;;;;;5051785;28;20475;-70